Time;durP1;ratioP1;P1;durP2;ratioP2;P2;SDS_P1;SDS_P2;PMS_P1;PMS_P2;Temp;Humidity;BMP_temperature;BMP_pressure;BME280_temperature;BME280_humidity;BME280_pressure;Samples;Min_cycle;Max_cycle;Signal;HPM_P1;HPM_P2
2023/06/17 00:02:03;;;;;;;7.28;5.90;;;15.60;99.90;;;14.51;98.32;99661.84;10385720;27;98940;-89
2023/06/17 00:07:07;;;;;;;7.10;5.40;;;15.60;99.90;;;14.54;98.27;99653.41;10390807;27;97367;-89
2023/06/17 00:12:12;;;;;;;7.20;5.10;;;15.60;99.90;;;14.60;98.56;99662.47;10384380;28;97644;-89
2023/06/17 00:17:16;;;;;;;6.57;5.63;;;15.70;99.90;;;14.62;98.21;99661.22;10389559;27;96710;-90
2023/06/17 00:22:20;;;;;;;8.30;6.43;;;15.70;99.90;;;14.52;97.90;99642.13;10402696;28;97400;-89
2023/06/17 00:27:23;;;;;;;7.80;6.68;;;15.70;99.90;;;14.39;98.35;99637.56;10398646;27;96902;-90
2023/06/17 00:32:28;;;;;;;8.38;6.07;;;15.60;99.90;;;14.37;98.95;99647.63;10414100;27;98143;-89
2023/06/17 00:37:32;;;;;;;7.93;6.60;;;15.50;99.90;;;14.20;99.27;99639.19;10421623;28;97360;-90
2023/06/17 00:42:36;;;;;;;8.38;6.32;;;15.40;99.90;;;14.20;99.42;99635.69;10399069;27;97044;-90
2023/06/17 00:47:41;;;;;;;10.05;5.90;;;15.30;99.90;;;14.11;99.00;99631.59;10421976;27;96630;-88
2023/06/17 00:52:45;;;;;;;8.13;5.38;;;15.20;99.90;;;14.07;97.99;99625.84;10425311;28;96645;-90
2023/06/17 00:57:50;;;;;;;7.57;5.55;;;15.20;99.90;;;14.13;97.55;99618.84;10402417;27;97223;-90
2023/06/17 01:02:56;;;;;;;8.57;5.57;;;15.20;99.90;;;14.09;97.36;99622.94;10393390;27;97296;-89
2023/06/17 01:08:30;;;;;;;8.38;5.72;;;15.20;99.90;;;14.04;98.01;99626.25;10421340;28;98492;-89
2023/06/17 01:13:35;;;;;;;7.63;5.18;;;15.10;99.90;;;14.06;97.42;99618.03;10418911;27;97118;-89
2023/06/17 01:18:40;;;;;;;5.90;4.70;;;15.10;99.90;;;14.05;97.43;99606.53;10404368;27;96710;-90
2023/06/17 01:23:52;;;;;;;6.60;4.47;;;15.20;99.90;;;14.23;97.38;99615.78;10404292;28;96604;-90
2023/06/17 01:28:59;;;;;;;5.60;4.05;;;15.30;99.90;;;14.25;96.94;99617.22;10398744;27;97419;-90
2023/06/17 01:34:04;;;;;;;6.25;4.57;;;15.40;99.90;;;14.30;96.03;99613.94;10400483;27;98461;-91
2023/06/17 01:39:13;;;;;;;5.15;4.20;;;15.40;99.90;;;14.23;95.55;99603.25;10403510;28;96654;-90
2023/06/17 01:44:19;;;;;;;7.72;4.57;;;15.40;99.90;;;14.19;95.50;99612.69;10422025;27;96593;-90
2023/06/17 01:49:23;;;;;;;6.75;5.43;;;15.40;99.90;;;14.18;95.53;99613.72;10411293;27;96676;-90
2023/06/17 01:54:27;;;;;;;5.90;4.53;;;15.30;99.90;;;14.10;95.68;99619.28;10420959;27;97311;-90
2023/06/17 01:59:31;;;;;;;7.15;5.20;;;15.30;99.90;;;13.97;96.16;99598.69;10393627;27;97061;-90
2023/06/17 02:04:35;;;;;;;8.50;6.20;;;15.20;99.90;;;13.93;96.86;99608.97;10416353;28;96657;-91
2023/06/17 02:09:38;;;;;;;8.27;6.10;;;15.10;99.90;;;13.84;97.59;99620.88;10400509;28;96665;-90
2023/06/17 02:14:42;;;;;;;7.47;5.30;;;15.00;99.90;;;13.75;98.53;99615.94;10416511;27;98128;-90
2023/06/17 02:19:46;;;;;;;6.32;5.00;;;14.90;99.90;;;13.70;99.22;99618.38;10399149;27;97604;-90
2023/06/17 02:24:49;;;;;;;7.78;6.10;;;14.80;99.90;;;13.61;99.40;99621.25;10398094;28;97660;-90
2023/06/17 02:29:53;;;;;;;7.00;5.17;;;14.80;99.90;;;13.53;99.70;99612.59;10405593;27;97736;-90
2023/06/17 02:34:57;;;;;;;5.53;4.85;;;14.70;99.90;;;13.48;100.00;99615.84;10422019;27;96743;-90
2023/06/17 02:40:01;;;;;;;7.40;4.90;;;14.70;99.90;;;13.60;100.00;99619.59;10414510;27;97571;-91
2023/06/17 02:45:07;;;;;;;6.68;5.38;;;14.80;99.90;;;13.61;100.00;99618.59;10401056;27;96579;-91
2023/06/17 02:50:10;;;;;;;7.40;5.47;;;14.80;99.90;;;13.58;99.71;99620.81;10393060;27;96906;-90
2023/06/17 02:55:15;;;;;;;9.52;5.38;;;14.80;99.90;;;13.56;99.67;99615.69;10408330;28;96696;-90
2023/06/17 03:00:20;;;;;;;6.77;5.30;;;14.80;99.90;;;13.61;99.31;99620.41;10412852;27;98265;-90
2023/06/17 03:05:24;;;;;;;5.43;4.70;;;14.80;99.90;;;13.58;99.27;99621.63;10406198;28;96595;-92
2023/06/17 03:10:28;;;;;;;9.23;5.80;;;14.80;99.90;;;13.60;99.53;99627.59;10416955;28;96720;-91
2023/06/17 03:15:31;;;;;;;6.65;5.50;;;14.80;99.90;;;13.52;100.00;99629.63;10436426;27;98205;-92
2023/06/17 03:20:38;;;;;;;6.80;5.22;;;14.70;99.90;;;13.55;100.00;99635.38;10424026;28;96647;-91
2023/06/17 03:25:42;;;;;;;8.23;6.75;;;14.70;99.90;;;13.65;100.00;99649.16;10399632;28;97109;-91
2023/06/17 03:30:46;;;;;;;10.23;7.30;;;14.80;99.90;;;13.62;100.00;99641.59;10400725;27;98639;-91
2023/06/17 03:35:50;;;;;;;10.10;7.05;;;14.80;99.90;;;13.66;100.00;99645.47;10432985;27;98391;-92
2023/06/17 03:40:53;;;;;;;10.23;7.93;;;14.80;99.90;;;13.81;100.00;99652.50;10403237;27;97247;-91
2023/06/17 03:45:57;;;;;;;8.95;7.72;;;14.90;99.90;;;13.86;100.00;99640.19;10397688;27;97207;-91
2023/06/17 03:51:02;;;;;;;10.98;8.10;;;15.00;99.90;;;13.97;100.00;99630.75;10399634;28;96699;-91
2023/06/17 03:56:06;;;;;;;7.82;5.50;;;15.10;99.90;;;14.22;100.00;99649.69;10403043;27;98447;-91
2023/06/17 04:01:12;;;;;;;9.52;6.60;;;15.30;99.90;;;14.35;100.00;99656.91;10414556;27;98085;-90
2023/06/17 04:06:16;;;;;;;9.82;6.57;;;15.50;99.90;;;14.48;100.00;99646.22;10421890;28;97685;-92
2023/06/17 04:11:20;;;;;;;11.25;6.90;;;15.70;99.90;;;14.66;100.00;99646.41;10403209;27;97561;-91
2023/06/17 04:16:23;;;;;;;12.52;6.63;;;15.80;99.90;;;14.77;100.00;99638.78;10402351;27;97163;-91
2023/06/17 04:21:28;;;;;;;6.68;5.28;;;16.00;99.90;;;15.08;100.00;99649.63;10402797;28;96648;-91
2023/06/17 04:26:32;;;;;;;10.98;7.13;;;16.20;99.90;;;15.26;97.15;99638.25;10404731;28;98031;-90
2023/06/17 04:31:40;;;;;;;6.63;5.35;;;16.40;99.90;;;15.49;91.13;99648.44;10391253;27;97108;-91
2023/06/17 04:36:43;;;;;;;6.55;4.93;;;16.60;99.90;;;15.68;89.11;99652.09;10381115;28;97251;-91
2023/06/17 04:41:47;;;;;;;7.35;5.10;;;16.80;99.90;;;15.89;88.61;99657.09;10391870;27;96635;-90
2023/06/17 04:46:51;;;;;;;7.05;4.15;;;17.00;99.90;;;16.14;85.38;99669.75;10403427;27;98127;-90
2023/06/17 04:51:56;;;;;;;7.57;4.80;;;17.20;99.90;;;16.31;83.72;99652.91;10391585;28;96595;-90
2023/06/17 04:57:00;;;;;;;6.85;4.75;;;17.40;99.90;;;16.47;82.00;99664.94;10406595;28;98306;-89
2023/06/17 05:02:03;;;;;;;7.65;4.85;;;17.60;99.90;;;16.62;80.41;99661.13;10395821;27;98111;-90
2023/06/17 05:07:08;;;;;;;5.82;4.93;;;17.70;99.90;;;16.74;79.51;99665.56;10423362;27;96637;-91
2023/06/17 05:12:11;;;;;;;6.68;4.22;;;17.80;99.90;;;16.96;77.00;99660.59;10404262;27;96745;-91
2023/06/17 05:17:15;;;;;;;4.72;3.70;;;18.00;99.90;;;17.11;76.13;99646.81;10391679;27;97908;-91
2023/06/17 05:22:18;;;;;;;6.00;4.00;;;18.30;99.90;;;17.35;75.37;99656.66;10393899;27;98207;-92
2023/06/17 05:27:23;;;;;;;6.13;4.57;;;18.50;99.90;;;17.51;73.25;99654.38;10416933;27;98192;-91
2023/06/17 05:32:27;;;;;;;6.10;4.07;;;18.60;99.40;;;17.74;73.03;99654.53;10411537;27;98561;-91
2023/06/17 05:37:31;;;;;;;6.18;4.28;;;18.80;98.90;;;17.78;72.73;99650.34;10399839;27;98598;-93
2023/06/17 05:42:36;;;;;;;7.78;4.20;;;18.90;98.50;;;17.82;73.05;99656.91;10416515;28;96891;-92
2023/06/17 05:47:39;;;;;;;6.93;4.38;;;19.00;98.60;;;17.77;72.75;99642.50;10410556;27;97723;-93
2023/06/17 05:52:45;;;;;;;7.13;4.30;;;18.90;98.40;;;17.80;72.90;99648.22;10403475;27;97605;-91
2023/06/17 05:57:51;;;;;;;4.95;4.25;;;18.90;98.30;;;17.91;72.24;99654.69;10411836;28;98063;-89
2023/06/17 06:02:57;;;;;;;5.80;4.10;;;19.00;98.00;;;18.00;72.12;99665.97;10402984;27;97148;-90
2023/06/17 06:08:00;;;;;;;7.18;4.40;;;19.10;98.00;;;17.99;71.24;99662.44;10408329;27;100303;-91
2023/06/17 06:13:04;;;;;;;4.97;4.38;;;19.10;97.60;;;18.10;71.25;99672.41;10401231;28;99425;-91
2023/06/17 06:18:08;;;;;;;8.05;5.13;;;19.10;97.50;;;18.07;70.89;99677.44;10397829;27;98311;-91
2023/06/17 06:23:12;;;;;;;6.18;4.45;;;19.10;97.20;;;18.11;71.20;99684.81;10419477;27;97575;-92
2023/06/17 06:28:15;;;;;;;6.80;4.25;;;19.10;97.40;;;18.27;70.92;99666.38;10392575;28;98481;-91
2023/06/17 06:33:19;;;;;;;7.60;4.45;;;19.30;97.30;;;18.41;70.89;99682.09;10381015;28;98731;-91
2023/06/17 06:38:23;;;;;;;10.80;4.53;;;19.50;97.20;;;18.57;70.91;99688.63;10392514;28;96757;-90
2023/06/17 06:43:26;;;;;;;6.63;4.22;;;19.60;97.10;;;18.56;70.76;99678.13;10410476;27;98106;-91
2023/06/17 06:48:30;;;;;;;5.10;4.15;;;19.70;97.00;;;18.80;71.10;99685.19;10388841;28;98322;-91
2023/06/17 06:53:34;;;;;;;8.90;4.10;;;19.80;97.20;;;18.94;70.28;99680.38;10372576;28;96801;-90
2023/06/17 06:58:38;;;;;;;5.43;3.90;;;20.00;97.00;;;19.13;69.35;99689.13;10402535;27;98168;-90
2023/06/17 07:03:41;;;;;;;8.70;4.80;;;20.20;96.60;;;19.27;68.71;99695.91;10400273;27;98160;-91
2023/06/17 07:08:45;;;;;;;5.38;3.85;;;20.30;96.40;;;19.39;69.46;99687.81;10403476;27;96817;-91
2023/06/17 07:13:49;;;;;;;6.03;3.47;;;20.40;96.50;;;19.58;67.88;99696.56;10393256;27;99096;-91
2023/06/17 07:18:53;;;;;;;7.28;4.07;;;20.60;96.10;;;19.75;67.57;99700.16;10406174;27;98369;-91
2023/06/17 07:23:56;;;;;;;5.28;3.83;;;20.80;95.80;;;19.81;67.91;99695.69;10391343;27;98468;-90
2023/06/17 07:29:01;;;;;;;4.68;3.70;;;20.90;95.80;;;19.94;66.29;99711.56;10399362;27;97392;-91
2023/06/17 07:34:05;;;;;;;6.57;4.20;;;20.90;95.30;;;19.96;67.92;99691.38;10405389;27;96826;-91
2023/06/17 07:39:08;;;;;;;6.03;3.45;;;21.00;95.50;;;20.47;64.35;99705.00;10402629;27;99508;-91
2023/06/17 07:44:12;;;;;;;4.95;3.80;;;21.20;94.80;;;20.70;61.75;99693.22;10404801;28;96699;-91
2023/06/17 07:49:16;;;;;;;8.43;4.07;;;21.40;93.70;;;20.82;60.90;99685.84;10383710;28;99316;-91
2023/06/17 07:54:19;;;;;;;4.97;3.83;;;21.70;93.20;;;21.07;58.91;99688.09;10387293;27;98264;-90
2023/06/17 07:59:23;;;;;;;5.30;3.35;;;21.90;92.30;;;21.29;59.52;99686.28;10388780;27;98357;-89
2023/06/17 08:04:26;;;;;;;5.72;3.88;;;22.20;92.00;;;21.61;55.94;99691.00;10393592;28;97979;-91
2023/06/17 08:09:30;;;;;;;9.88;3.90;;;22.50;90.60;;;21.74;54.20;99676.25;10382411;28;99258;-92
2023/06/17 08:14:34;;;;;;;4.13;3.38;;;22.70;88.90;;;21.90;55.47;99672.66;10394520;28;97999;-93
2023/06/17 08:19:38;;;;;;;5.88;3.40;;;22.80;88.60;;;22.17;55.14;99678.06;10395309;28;97875;-94
2023/06/17 08:24:42;;;;;;;4.78;3.60;;;23.10;88.10;;;22.24;53.84;99672.44;10394125;28;96789;-94
2023/06/17 08:29:45;;;;;;;8.02;3.28;;;23.30;86.70;;;22.44;54.31;99676.16;10392140;28;98310;-94
2023/06/17 08:34:49;;;;;;;4.82;3.08;;;23.50;87.10;;;22.39;52.96;99689.66;10408000;28;97206;-93
2023/06/17 08:39:52;;;;;;;4.38;3.33;;;23.40;85.00;;;22.27;53.97;99683.59;10387458;28;97622;-94
2023/06/17 08:45:02;;;;;;;6.07;3.60;;;23.30;85.70;;;22.11;54.39;99687.22;10400659;28;97414;-93
2023/06/17 08:50:07;;;;;;;4.15;3.50;;;23.20;85.60;;;21.95;55.57;99680.81;10400205;28;97586;-94
2023/06/17 08:55:11;;;;;;;5.38;3.85;;;23.10;86.40;;;22.02;56.99;99694.97;10387876;28;98187;-93
2023/06/17 09:00:15;;;;;;;4.78;3.63;;;23.00;87.80;;;22.06;57.60;99692.53;10411996;28;98198;-93
2023/06/17 09:05:19;;;;;;;4.82;3.42;;;23.10;88.00;;;22.14;57.61;99702.94;10379302;28;96512;-93
2023/06/17 09:10:22;;;;;;;6.10;3.65;;;23.10;88.00;;;22.13;57.51;99691.31;10405326;28;98198;-94
2023/06/17 09:15:26;;;;;;;5.80;4.05;;;23.10;88.30;;;22.23;55.81;99689.75;10406292;28;96961;-94
2023/06/17 09:20:32;;;;;;;4.90;3.53;;;23.20;87.00;;;22.24;56.67;99681.38;10435587;28;98589;-92
2023/06/17 09:25:36;;;;;;;8.45;3.53;;;23.30;86.90;;;22.36;56.17;99686.63;10394322;28;97288;-94
2023/06/17 09:30:42;;;;;;;7.72;3.53;;;23.40;86.60;;;22.55;57.25;99690.59;10417992;28;96618;-92
2023/06/17 09:35:47;;;;;;;5.80;3.78;;;23.50;87.20;;;22.74;55.97;99688.31;10421901;28;97372;-92
2023/06/17 09:40:51;;;;;;;4.82;3.03;;;23.70;86.40;;;22.75;55.60;99675.56;10390184;28;98994;-91
2023/06/17 09:45:59;;;;;;;4.65;3.30;;;23.80;85.70;;;22.80;55.44;99689.16;10401789;28;98355;-93
2023/06/17 09:51:09;;;;;;;5.03;3.50;;;23.80;85.10;;;22.95;55.49;99689.28;10404944;28;96757;-92
2023/06/17 09:56:13;;;;;;;11.02;3.80;;;23.90;85.30;;;23.05;52.66;99694.75;10422541;28;97386;-93
2023/06/17 10:01:17;;;;;;;5.47;3.00;;;24.10;83.30;;;23.11;53.75;99685.59;10416966;28;97168;-90
2023/06/17 10:06:23;;;;;;;9.65;3.03;;;24.10;83.30;;;23.23;52.76;99686.19;10416994;28;97691;-92
2023/06/17 10:11:29;;;;;;;4.38;3.03;;;24.20;82.50;;;23.35;52.03;99696.00;10395082;28;97532;-92
2023/06/17 10:16:38;;;;;;;5.57;3.28;;;24.30;81.30;;;23.50;52.56;99685.22;10395603;28;98010;-90
2023/06/17 10:21:46;;;;;;;4.93;3.37;;;24.50;81.20;;;23.50;51.80;99686.03;10417832;27;97701;-91
2023/06/17 10:26:51;;;;;;;5.72;3.08;;;24.50;80.60;;;23.49;51.08;99683.59;10409464;27;96787;-92
2023/06/17 10:31:55;;;;;;;5.15;3.15;;;24.50;79.70;;;23.44;49.69;99684.38;10396717;28;96684;-92
2023/06/17 10:37:00;;;;;;;3.75;2.75;;;24.50;78.30;;;23.58;50.45;99684.72;10389114;28;97479;-92
2023/06/17 10:42:13;;;;;;;5.90;2.90;;;24.60;78.70;;;23.60;48.39;99679.84;10412485;27;96732;-92
2023/06/17 10:47:22;;;;;;;4.72;2.97;;;24.70;76.90;;;23.56;49.69;99689.56;10414466;28;97111;-90
2023/06/17 10:52:30;;;;;;;5.03;2.90;;;24.60;77.10;;;23.47;48.63;99678.44;10377109;28;96811;-92
2023/06/17 10:57:36;;;;;;;5.32;2.92;;;24.60;76.20;;;23.55;48.81;99690.66;10413282;28;96716;-92
2023/06/17 11:02:40;;;;;;;3.63;2.80;;;24.50;75.70;;;23.54;49.01;99694.47;10400611;28;97948;-92
2023/06/17 11:07:44;;;;;;;3.85;2.97;;;24.50;75.60;;;23.67;49.69;99694.00;10412922;28;96432;-92
2023/06/17 11:12:48;;;;;;;5.18;3.20;;;24.70;76.10;;;23.82;49.27;99678.84;10409922;28;99303;-91
2023/06/17 11:18:03;;;;;;;4.93;2.67;;;24.80;76.00;;;24.04;49.55;99684.84;10413776;28;96634;-91
2023/06/17 11:23:07;;;;;;;3.63;2.92;;;25.10;75.90;;;24.09;49.32;99674.00;10401832;28;96529;-91
2023/06/17 11:28:11;;;;;;;3.67;2.53;;;25.10;75.50;;;24.16;47.35;99673.75;10415255;28;98679;-91
2023/06/17 11:33:20;;;;;;;4.30;3.00;;;25.20;73.50;;;24.35;47.14;99668.63;10414303;28;96567;-89
2023/06/17 11:38:24;;;;;;;4.63;2.60;;;25.40;73.50;;;24.65;46.29;99671.34;10424613;28;98673;-90
2023/06/17 11:43:28;;;;;;;5.05;2.63;;;25.70;72.80;;;24.68;46.19;99665.34;10422989;28;97461;-93
2023/06/17 11:48:36;;;;;;;5.85;3.17;;;25.70;71.70;;;24.56;45.53;99656.69;10402216;28;98330;-91
2023/06/17 11:53:40;;;;;;;4.57;2.60;;;25.70;71.30;;;24.45;45.55;99655.88;10419610;27;96552;-92
2023/06/17 11:58:44;;;;;;;3.58;2.58;;;25.50;71.00;;;24.59;45.97;99645.28;10402306;28;96689;-91
2023/06/17 12:03:48;;;;;;;3.20;2.60;;;25.70;71.30;;;24.83;46.40;99654.47;10417029;27;97004;-92
2023/06/17 12:09:06;;;;;;;4.43;2.55;;;25.90;70.80;;;25.11;44.81;99656.88;10403636;28;96524;-91
2023/06/17 12:14:12;;;;;;;3.58;2.40;;;26.40;70.10;;;25.01;44.26;99644.91;10403420;28;96511;-94
2023/06/17 12:19:24;;;;;;;4.13;2.45;;;26.50;68.50;;;25.02;44.81;99648.44;10407020;28;97045;-93
2023/06/17 12:24:27;;;;;;;5.68;2.33;;;26.70;68.20;;;25.04;43.59;99647.06;10408299;28;96714;-95
2023/06/17 12:29:31;;;;;;;5.10;2.15;;;26.70;67.30;;;25.07;43.19;99648.47;10406187;28;97558;-93
2023/06/17 12:34:35;;;;;;;2.90;1.65;;;26.70;65.90;;;25.07;43.63;99641.13;10419168;28;96665;-93
2023/06/17 12:39:39;;;;;;;4.53;1.95;;;26.80;66.00;;;24.96;40.82;99650.38;10411012;28;96757;-92
2023/06/17 12:44:44;;;;;;;2.40;1.67;;;26.60;63.70;;;24.92;44.08;99641.13;10428849;28;97403;-93
2023/06/17 12:49:49;;;;;;;2.50;1.50;;;26.40;65.80;;;25.29;44.41;99648.09;10400031;27;97353;-93
2023/06/17 12:55:00;;;;;;;2.35;1.73;;;26.60;67.20;;;25.56;42.33;99631.41;10416799;27;96734;-94
2023/06/17 13:00:06;;;;;;;1.85;1.60;;;26.90;65.20;;;25.66;41.13;99630.50;10399536;27;96746;-92
2023/06/17 13:05:10;;;;;;;2.70;1.83;;;27.00;63.30;;;25.43;41.21;99632.00;10401590;27;96653;-92
2023/06/17 13:10:13;;;;;;;2.13;1.85;;;26.70;63.40;;;25.36;42.80;99637.72;10416350;27;96712;-91
2023/06/17 13:15:17;;;;;;;2.28;1.80;;;26.50;65.40;;;25.50;41.83;99643.41;10400172;28;96707;-92
2023/06/17 13:20:21;;;;;;;2.72;1.48;;;26.60;63.90;;;25.69;41.28;99625.34;10401303;27;96658;-92
2023/06/17 13:25:26;;;;;;;3.55;2.00;;;26.70;63.70;;;26.08;41.97;99621.81;10391891;27;97467;-93
2023/06/17 13:30:30;;;;;;;2.65;1.90;;;27.20;64.40;;;26.38;41.94;99626.19;10400709;28;98061;-95
2023/06/17 13:35:34;;;;;;;2.47;1.60;;;27.40;64.10;;;26.39;39.49;99633.28;10405566;27;96789;-92
2023/06/17 13:40:38;;;;;;;3.13;1.55;;;27.40;62.10;;;26.30;38.85;99635.81;10402232;27;97097;-95
2023/06/17 13:45:42;;;;;;;4.38;1.85;;;27.30;60.70;;;26.10;40.01;99630.53;10405847;27;98041;-93
2023/06/17 13:50:46;;;;;;;2.42;1.70;;;27.10;61.70;;;26.08;40.07;99629.97;10380274;28;98989;-94
2023/06/17 13:55:52;;;;;;;2.20;1.60;;;27.00;62.10;;;25.92;40.33;99633.94;10393323;28;97560;-94
2023/06/17 14:00:56;;;;;;;2.20;1.77;;;26.90;62.10;;;25.88;40.35;99629.03;10416158;27;96917;-96
2023/06/17 14:05:59;;;;;;;2.67;1.48;;;26.80;61.60;;;25.79;40.24;99629.91;10407043;28;96572;-94
2023/06/17 14:11:03;;;;;;;2.00;1.48;;;26.80;61.60;;;25.70;40.39;99637.84;10420161;28;96626;-92
2023/06/17 14:16:07;;;;;;;3.45;1.60;;;26.70;61.70;;;25.65;41.07;99640.59;10409630;28;96602;-93
2023/06/17 14:21:32;;;;;;;2.13;1.80;;;26.70;62.00;;;25.73;42.29;99639.16;10424233;27;96754;-93
2023/06/17 14:26:39;;;;;;;2.78;1.67;;;26.70;63.10;;;25.83;41.04;99631.78;10390295;28;96722;-93
2023/06/17 14:31:43;;;;;;;1.58;1.40;;;26.90;62.20;;;25.86;41.27;99631.25;10426476;28;96409;-93
2023/06/17 14:36:48;;;;;;;2.10;1.70;;;27.00;62.20;;;25.88;40.90;99634.47;10392353;28;96587;-94
2023/06/17 14:41:52;;;;;;;2.40;1.48;;;27.00;62.00;;;25.80;40.96;99634.28;10397917;28;99227;-95
2023/06/17 14:46:55;;;;;;;2.17;1.52;;;26.90;62.00;;;25.82;40.83;99616.56;10424996;28;96755;-95
2023/06/17 14:52:00;;;;;;;2.22;1.67;;;26.90;61.70;;;26.02;40.14;99618.31;10399196;28;96805;-93
2023/06/17 14:57:04;;;;;;;1.67;1.45;;;27.10;61.30;;;26.11;39.35;99602.22;10400252;28;96560;-94
2023/06/17 15:02:48;;;;;;;2.20;1.80;;;27.20;60.40;;;26.11;39.85;99621.25;10402802;27;96847;-93
2023/06/17 15:07:51;;;;;;;2.10;1.60;;;27.20;60.10;;;25.90;40.89;99609.69;10394011;27;98045;-95
2023/06/17 15:12:55;;;;;;;2.70;1.55;;;27.00;61.00;;;25.92;39.97;99614.88;10383812;28;96701;-94
2023/06/17 15:17:59;;;;;;;2.35;1.83;;;26.90;60.80;;;25.95;39.43;99615.09;10387747;28;97585;-93
2023/06/17 15:23:03;;;;;;;3.03;1.40;;;27.00;60.10;;;26.18;38.15;99612.75;10372451;28;96606;-95
2023/06/17 15:28:07;;;;;;;1.90;1.60;;;27.30;58.90;;;26.06;37.10;99611.22;10403387;28;96632;-96
2023/06/17 15:33:11;;;;;;;4.88;1.70;;;27.50;57.70;;;25.85;37.70;99607.03;10401472;28;96844;-94
2023/06/17 15:38:17;;;;;;;2.05;1.30;;;27.20;57.80;;;25.62;37.98;99617.47;10398194;28;96515;-96
2023/06/17 15:43:21;;;;;;;2.83;1.42;;;26.90;58.10;;;25.66;38.84;99615.00;10385855;28;97327;-96
2023/06/17 15:48:25;;;;;;;4.20;1.65;;;26.80;59.80;;;25.82;38.67;99623.91;10406114;28;96657;-95
2023/06/17 15:53:29;;;;;;;1.30;1.08;;;26.90;58.80;;;25.95;38.59;99620.56;10414341;28;96506;-95
2023/06/17 15:58:32;;;;;;;2.35;1.40;;;27.00;58.80;;;26.11;37.53;99615.81;10441252;27;96722;-96
2023/06/17 16:03:37;;;;;;;2.13;1.42;;;27.10;58.00;;;26.11;37.39;99640.31;10416062;28;97423;-94
2023/06/17 16:08:42;;;;;;;2.05;1.30;;;27.00;58.20;;;25.93;38.16;99621.94;10415198;28;97481;-96
2023/06/17 16:13:48;;;;;;;1.70;1.40;;;26.80;58.10;;;25.84;38.13;99632.59;10431092;28;96662;-96
2023/06/17 16:18:55;;;;;;;;;;;26.70;58.30;;;25.61;39.82;99636.81;10417535;28;96539;-96
2023/06/17 16:23:58;;;;;;;3.00;1.40;;;26.40;59.10;;;25.34;40.40;99631.78;10409099;28;96609;-95
2023/06/17 16:29:02;;;;;;;3.60;1.67;;;26.20;59.90;;;25.21;40.21;99625.03;10411029;28;97907;-95
2023/06/17 16:34:08;;;;;;;2.70;1.92;;;26.10;59.90;;;25.07;40.25;99641.13;10413306;28;96683;-95
2023/06/17 16:39:12;;;;;;;3.20;1.90;;;25.90;59.90;;;24.97;40.97;99651.19;10432130;28;96451;-96
2023/06/17 16:44:15;;;;;;;2.10;1.88;;;25.80;60.30;;;25.00;40.03;99656.84;10412712;28;96695;-96
2023/06/17 16:49:19;;;;;;;3.38;1.73;;;25.80;59.90;;;25.09;41.32;99663.41;10408617;28;96808;-96
2023/06/17 16:54:25;;;;;;;2.53;1.92;;;25.90;60.60;;;25.28;39.93;99674.47;10407383;28;96594;-96
2023/06/17 16:59:28;;;;;;;3.28;1.90;;;26.10;59.90;;;25.22;39.42;99678.31;10408408;28;96740;-96
2023/06/17 17:04:32;;;;;;;4.93;1.92;;;26.20;59.30;;;25.17;39.50;99683.75;10412633;28;96583;-96
2023/06/17 17:09:38;;;;;;;4.20;2.10;;;26.20;59.20;;;24.99;39.81;99685.13;10412506;28;96461;-96
2023/06/17 17:14:43;;;;;;;3.25;2.28;;;26.10;59.00;;;24.79;41.01;99688.72;10429094;27;96476;-96
2023/06/17 17:19:48;;;;;;;4.88;2.42;;;25.90;59.80;;;24.73;40.45;99697.97;10412604;28;96854;-96
2023/06/17 17:24:51;;;;;;;2.80;2.30;;;25.80;59.90;;;24.42;41.09;99707.22;10411381;28;96441;-96
2023/06/17 17:29:57;;;;;;;2.40;2.10;;;25.50;60.30;;;24.17;42.14;99697.09;10384148;28;96916;-96
2023/06/17 17:35:01;;;;;;;3.85;2.45;;;25.20;61.20;;;23.84;42.87;99701.91;10388218;28;96441;-95
2023/06/17 17:40:06;;;;;;;4.10;2.47;;;24.80;61.80;;;23.51;43.48;99705.84;10370786;28;96855;-96
2023/06/17 17:45:10;;;;;;;4.22;2.38;;;24.50;62.50;;;23.18;44.69;99713.25;10407547;28;96598;-96
2023/06/17 17:50:14;;;;;;;7.25;2.50;;;24.10;63.50;;;22.87;45.56;99706.03;10424574;28;99314;-95
2023/06/17 17:55:17;;;;;;;5.60;2.67;;;23.90;64.30;;;22.60;44.92;99723.13;10413881;28;97066;-92
2023/06/17 18:00:23;;;;;;;3.72;2.60;;;23.60;63.90;;;22.34;45.42;99715.84;10414648;28;96601;-93
2023/06/17 18:05:27;;;;;;;3.97;2.40;;;23.40;64.40;;;22.16;44.57;99727.84;10426626;28;96551;-92
2023/06/17 18:10:31;;;;;;;4.40;2.70;;;23.20;64.00;;;22.04;44.10;99738.81;10420608;28;97036;-93
2023/06/17 18:15:34;;;;;;;4.40;2.95;;;23.00;63.30;;;21.88;44.50;99745.91;10397070;27;98841;-95
2023/06/17 18:20:38;;;;;;;5.18;2.70;;;22.80;63.30;;;21.72;44.59;99762.25;10382011;27;97052;-95
2023/06/17 18:25:42;;;;;;;5.88;2.53;;;22.70;63.40;;;21.46;44.79;99758.38;10402307;28;97437;-96
2023/06/17 18:30:46;;;;;;;5.28;2.40;;;22.50;63.40;;;21.25;45.19;99755.34;10396411;27;98246;-96
2023/06/17 18:35:50;;;;;;;4.65;2.33;;;22.40;63.70;;;21.17;45.32;99773.88;10407475;27;98621;-95
2023/06/17 18:40:53;;;;;;;5.47;3.15;;;22.20;63.90;;;20.99;45.92;99783.03;10390392;28;97997;-96
2023/06/17 18:45:57;;;;;;;3.25;2.55;;;22.10;64.30;;;20.79;46.24;99778.13;10390651;28;97968;-95
2023/06/17 18:51:01;;;;;;;2.97;2.50;;;21.90;64.40;;;20.68;46.69;99785.25;10418452;27;96626;-95
2023/06/17 18:56:05;;;;;;;4.50;2.45;;;21.80;65.00;;;20.52;47.32;99789.56;10394641;28;96872;-96
2023/06/17 19:01:09;;;;;;;5.13;2.55;;;21.70;65.40;;;20.46;47.59;99811.31;10398957;28;98304;-96
2023/06/17 19:06:13;;;;;;;3.70;2.33;;;21.50;65.90;;;20.22;48.19;99806.00;10404667;27;97838;-96
2023/06/17 19:11:17;;;;;;;3.72;2.53;;;21.40;66.40;;;20.12;48.59;99811.19;10401421;28;97013;-95
2023/06/17 19:16:21;;;;;;;4.88;2.63;;;21.20;66.80;;;20.00;49.31;99818.50;10401808;27;98139;-96
2023/06/17 19:21:25;;;;;;;3.67;2.63;;;21.10;67.30;;;19.93;49.40;99829.41;10418144;27;99980;-95
2023/06/17 19:26:29;;;;;;;4.20;2.63;;;21.00;67.90;;;19.81;50.26;99828.63;10407168;28;97834;-96
2023/06/17 19:31:32;;;;;;;4.97;3.25;;;20.90;68.30;;;19.68;51.11;99839.66;10407672;28;96566;-96
2023/06/17 19:36:36;;;;;;;5.18;2.95;;;20.70;69.10;;;19.43;52.17;99837.16;10395095;28;98144;-96
2023/06/17 19:41:40;;;;;;;3.65;2.83;;;20.50;70.00;;;19.32;53.18;99846.09;10402606;28;97337;-96
2023/06/17 19:46:44;;;;;;;4.78;3.00;;;20.30;70.70;;;19.10;54.03;99837.72;10399007;28;96887;-96
2023/06/17 19:51:51;;;;;;;4.05;3.10;;;20.10;71.40;;;18.93;54.57;99840.28;10401060;27;97375;-96
2023/06/17 19:56:55;;;;;;;3.75;2.97;;;20.00;72.10;;;18.76;55.67;99845.50;10379006;28;96561;-96
2023/06/17 20:01:59;;;;;;;6.10;2.92;;;19.80;73.00;;;18.78;56.54;99848.81;10428036;27;96673;-96
2023/06/17 20:07:03;;;;;;;3.42;2.90;;;19.80;73.80;;;18.77;56.69;99832.84;10404679;28;96417;-96
2023/06/17 20:12:08;;;;;;;5.40;3.25;;;19.90;74.00;;;18.90;56.36;99830.81;10395667;28;98229;-96
2023/06/17 20:17:12;;;;;;;4.28;3.33;;;19.90;73.90;;;19.02;55.95;99848.84;10389501;28;96665;-96
2023/06/17 20:22:16;;;;;;;4.25;2.88;;;20.00;73.80;;;19.08;55.96;99854.13;10435891;27;96592;-96
2023/06/17 20:27:20;;;;;;;3.72;2.90;;;20.10;73.90;;;19.03;55.62;99832.47;10422915;28;96481;-96
2023/06/17 20:32:24;;;;;;;4.75;3.00;;;20.10;73.70;;;19.15;56.22;99849.44;10436580;27;96435;-96
2023/06/17 20:37:28;;;;;;;3.45;2.75;;;20.10;73.90;;;19.09;56.14;99847.69;10414196;27;96808;-96
2023/06/17 20:42:32;;;;;;;5.05;3.00;;;20.10;74.00;;;19.04;56.69;99852.13;10397166;28;98867;-96
2023/06/17 20:47:42;;;;;;;4.97;2.92;;;20.00;74.20;;;18.96;56.88;99855.97;10416100;28;96597;-96
2023/06/17 20:52:52;;;;;;;4.55;2.72;;;20.00;74.50;;;18.77;57.64;99835.53;10418406;28;96614;-93
2023/06/17 20:58:00;;;;;;;5.05;2.70;;;19.90;74.80;;;18.70;57.79;99831.09;10393893;27;97139;-95
2023/06/17 21:03:05;;;;;;;4.45;3.10;;;19.90;75.10;;;18.65;57.96;99838.16;10391380;27;97665;-95
2023/06/17 21:08:09;;;;;;;3.92;2.70;;;19.80;75.30;;;18.52;58.60;99819.53;10396488;28;96661;-95